sensor_id;sensor_type;location;lat;lon;timestamp;P1;durP1;ratioP1;P2;durP2;ratioP2
78893;SDS011;68282;42.698;23.350;2023-05-07T00:00:35;18.30;;;10.10;;
78893;SDS011;68282;42.698;23.350;2023-05-07T00:03:01;14.80;;;9.55;;
78893;SDS011;68282;42.698;23.350;2023-05-07T00:05:26;12.30;;;8.82;;
78893;SDS011;68282;42.698;23.350;2023-05-07T00:07:51;11.32;;;9.10;;
78893;SDS011;68282;42.698;23.350;2023-05-07T00:10:20;14.80;;;9.93;;
78893;SDS011;68282;42.698;23.350;2023-05-07T00:12:45;13.63;;;8.85;;
78893;SDS011;68282;42.698;23.350;2023-05-07T00:15:11;12.40;;;9.57;;
78893;SDS011;68282;42.698;23.350;2023-05-07T00:17:36;17.77;;;10.38;;
78893;SDS011;68282;42.698;23.350;2023-05-07T00:20:02;15.95;;;10.07;;
78893;SDS011;68282;42.698;23.350;2023-05-07T00:22:29;13.45;;;9.60;;
78893;SDS011;68282;42.698;23.350;2023-05-07T00:24:55;13.02;;;9.50;;
78893;SDS011;68282;42.698;23.350;2023-05-07T00:27:21;12.00;;;8.98;;
78893;SDS011;68282;42.698;23.350;2023-05-07T00:29:47;15.35;;;9.85;;
78893;SDS011;68282;42.698;23.350;2023-05-07T00:32:12;13.48;;;9.60;;
78893;SDS011;68282;42.698;23.350;2023-05-07T00:34:38;16.63;;;9.73;;
78893;SDS011;68282;42.698;23.350;2023-05-07T00:37:04;11.63;;;8.93;;
78893;SDS011;68282;42.698;23.350;2023-05-07T00:39:30;14.25;;;9.38;;
78893;SDS011;68282;42.698;23.350;2023-05-07T00:41:55;13.50;;;8.73;;
78893;SDS011;68282;42.698;23.350;2023-05-07T00:44:20;12.52;;;7.93;;
78893;SDS011;68282;42.698;23.350;2023-05-07T00:46:46;11.20;;;8.57;;
78893;SDS011;68282;42.698;23.350;2023-05-07T00:49:14;15.10;;;8.10;;
78893;SDS011;68282;42.698;23.350;2023-05-07T00:51:40;13.13;;;6.90;;
78893;SDS011;68282;42.698;23.350;2023-05-07T00:54:06;8.43;;;5.72;;
78893;SDS011;68282;42.698;23.350;2023-05-07T00:56:32;9.45;;;6.32;;
78893;SDS011;68282;42.698;23.350;2023-05-07T00:58:58;9.73;;;6.75;;
78893;SDS011;68282;42.698;23.350;2023-05-07T01:01:24;10.35;;;6.72;;
78893;SDS011;68282;42.698;23.350;2023-05-07T01:03:49;8.77;;;5.88;;
78893;SDS011;68282;42.698;23.350;2023-05-07T01:06:15;7.72;;;5.72;;
78893;SDS011;68282;42.698;23.350;2023-05-07T01:08:41;10.68;;;6.68;;
78893;SDS011;68282;42.698;23.350;2023-05-07T01:11:07;10.05;;;7.15;;
78893;SDS011;68282;42.698;23.350;2023-05-07T01:13:34;9.15;;;6.10;;
78893;SDS011;68282;42.698;23.350;2023-05-07T01:16:00;13.05;;;7.10;;
78893;SDS011;68282;42.698;23.350;2023-05-07T01:18:26;10.65;;;7.22;;
78893;SDS011;68282;42.698;23.350;2023-05-07T01:20:51;9.05;;;6.15;;
78893;SDS011;68282;42.698;23.350;2023-05-07T01:23:17;7.55;;;5.32;;
78893;SDS011;68282;42.698;23.350;2023-05-07T01:25:50;12.02;;;6.60;;
78893;SDS011;68282;42.698;23.350;2023-05-07T01:28:16;8.60;;;5.95;;
78893;SDS011;68282;42.698;23.350;2023-05-07T01:30:42;9.90;;;6.22;;
78893;SDS011;68282;42.698;23.350;2023-05-07T01:33:13;9.30;;;6.65;;
78893;SDS011;68282;42.698;23.350;2023-05-07T01:35:41;9.27;;;6.25;;
78893;SDS011;68282;42.698;23.350;2023-05-07T01:38:10;7.80;;;5.78;;
78893;SDS011;68282;42.698;23.350;2023-05-07T01:40:37;8.23;;;5.50;;
78893;SDS011;68282;42.698;23.350;2023-05-07T01:43:02;7.38;;;5.43;;
78893;SDS011;68282;42.698;23.350;2023-05-07T01:45:28;9.93;;;6.20;;
78893;SDS011;68282;42.698;23.350;2023-05-07T01:47:55;9.50;;;5.65;;
78893;SDS011;68282;42.698;23.350;2023-05-07T01:50:23;8.60;;;5.88;;
78893;SDS011;68282;42.698;23.350;2023-05-07T01:52:50;7.13;;;5.07;;
78893;SDS011;68282;42.698;23.350;2023-05-07T01:55:15;9.32;;;5.07;;
78893;SDS011;68282;42.698;23.350;2023-05-07T01:57:41;6.57;;;5.00;;
78893;SDS011;68282;42.698;23.350;2023-05-07T02:00:07;7.32;;;5.18;;
78893;SDS011;68282;42.698;23.350;2023-05-07T02:02:34;8.57;;;5.30;;
78893;SDS011;68282;42.698;23.350;2023-05-07T02:04:59;8.55;;;5.85;;
78893;SDS011;68282;42.698;23.350;2023-05-07T02:07:26;9.23;;;4.95;;
78893;SDS011;68282;42.698;23.350;2023-05-07T02:09:51;6.45;;;5.63;;
78893;SDS011;68282;42.698;23.350;2023-05-07T02:12:17;6.30;;;4.97;;
78893;SDS011;68282;42.698;23.350;2023-05-07T02:14:42;9.70;;;5.50;;
78893;SDS011;68282;42.698;23.350;2023-05-07T02:17:08;7.78;;;5.28;;
78893;SDS011;68282;42.698;23.350;2023-05-07T02:19:33;9.57;;;5.93;;
78893;SDS011;68282;42.698;23.350;2023-05-07T02:21:59;13.07;;;6.07;;
78893;SDS011;68282;42.698;23.350;2023-05-07T02:24:24;6.93;;;4.93;;
78893;SDS011;68282;42.698;23.350;2023-05-07T02:26:50;9.40;;;6.40;;
78893;SDS011;68282;42.698;23.350;2023-05-07T02:29:15;9.00;;;6.47;;
78893;SDS011;68282;42.698;23.350;2023-05-07T02:31:40;7.90;;;5.13;;
78893;SDS011;68282;42.698;23.350;2023-05-07T02:34:06;9.75;;;5.85;;
78893;SDS011;68282;42.698;23.350;2023-05-07T02:36:32;7.97;;;5.75;;
78893;SDS011;68282;42.698;23.350;2023-05-07T02:38:57;9.68;;;5.68;;
78893;SDS011;68282;42.698;23.350;2023-05-07T02:41:22;8.43;;;5.75;;
78893;SDS011;68282;42.698;23.350;2023-05-07T02:43:48;10.27;;;6.22;;
78893;SDS011;68282;42.698;23.350;2023-05-07T02:46:13;8.73;;;6.18;;
78893;SDS011;68282;42.698;23.350;2023-05-07T02:48:38;10.63;;;6.15;;
78893;SDS011;68282;42.698;23.350;2023-05-07T02:51:04;10.90;;;6.38;;
78893;SDS011;68282;42.698;23.350;2023-05-07T02:53:30;8.93;;;6.13;;
78893;SDS011;68282;42.698;23.350;2023-05-07T02:55:56;10.55;;;7.88;;
78893;SDS011;68282;42.698;23.350;2023-05-07T02:58:23;10.68;;;6.68;;
78893;SDS011;68282;42.698;23.350;2023-05-07T03:00:49;10.68;;;7.45;;
78893;SDS011;68282;42.698;23.350;2023-05-07T03:03:15;11.38;;;7.40;;
78893;SDS011;68282;42.698;23.350;2023-05-07T03:05:41;10.23;;;7.45;;
78893;SDS011;68282;42.698;23.350;2023-05-07T03:08:06;9.80;;;7.03;;
78893;SDS011;68282;42.698;23.350;2023-05-07T03:10:32;10.63;;;7.25;;
78893;SDS011;68282;42.698;23.350;2023-05-07T03:12:58;9.95;;;6.80;;
78893;SDS011;68282;42.698;23.350;2023-05-07T03:15:23;9.38;;;6.40;;
78893;SDS011;68282;42.698;23.350;2023-05-07T03:17:49;9.45;;;7.05;;
78893;SDS011;68282;42.698;23.350;2023-05-07T03:20:14;10.32;;;7.20;;
78893;SDS011;68282;42.698;23.350;2023-05-07T03:22:40;11.25;;;7.28;;
78893;SDS011;68282;42.698;23.350;2023-05-07T03:25:05;13.27;;;7.18;;
78893;SDS011;68282;42.698;23.350;2023-05-07T03:27:31;11.25;;;7.43;;
78893;SDS011;68282;42.698;23.350;2023-05-07T03:29:57;10.82;;;6.75;;
78893;SDS011;68282;42.698;23.350;2023-05-07T03:32:22;10.02;;;7.30;;
78893;SDS011;68282;42.698;23.350;2023-05-07T03:34:47;11.88;;;7.65;;
78893;SDS011;68282;42.698;23.350;2023-05-07T03:37:13;10.07;;;7.57;;
78893;SDS011;68282;42.698;23.350;2023-05-07T03:39:38;11.43;;;8.15;;
78893;SDS011;68282;42.698;23.350;2023-05-07T03:42:04;11.85;;;7.43;;
78893;SDS011;68282;42.698;23.350;2023-05-07T03:44:29;12.80;;;7.95;;
78893;SDS011;68282;42.698;23.350;2023-05-07T03:46:55;16.35;;;8.05;;
78893;SDS011;68282;42.698;23.350;2023-05-07T03:49:20;12.98;;;8.20;;
78893;SDS011;68282;42.698;23.350;2023-05-07T03:51:46;12.50;;;8.02;;
78893;SDS011;68282;42.698;23.350;2023-05-07T03:54:11;11.25;;;7.63;;
78893;SDS011;68282;42.698;23.350;2023-05-07T03:56:37;11.75;;;8.10;;
78893;SDS011;68282;42.698;23.350;2023-05-07T03:59:02;13.35;;;8.68;;
78893;SDS011;68282;42.698;23.350;2023-05-07T04:01:28;13.98;;;8.90;;
78893;SDS011;68282;42.698;23.350;2023-05-07T04:03:53;11.90;;;8.27;;
78893;SDS011;68282;42.698;23.350;2023-05-07T04:06:18;12.98;;;8.40;;
78893;SDS011;68282;42.698;23.350;2023-05-07T04:08:44;13.10;;;7.28;;
78893;SDS011;68282;42.698;23.350;2023-05-07T04:11:09;11.27;;;8.00;;
78893;SDS011;68282;42.698;23.350;2023-05-07T04:13:34;11.18;;;8.30;;
78893;SDS011;68282;42.698;23.350;2023-05-07T04:16:05;10.18;;;7.70;;
78893;SDS011;68282;42.698;23.350;2023-05-07T04:18:31;12.85;;;7.15;;
78893;SDS011;68282;42.698;23.350;2023-05-07T04:20:57;10.52;;;6.95;;
78893;SDS011;68282;42.698;23.350;2023-05-07T04:23:22;8.68;;;5.75;;
78893;SDS011;68282;42.698;23.350;2023-05-07T04:25:47;11.90;;;7.55;;
78893;SDS011;68282;42.698;23.350;2023-05-07T04:28:13;10.77;;;7.38;;
78893;SDS011;68282;42.698;23.350;2023-05-07T04:30:39;9.70;;;7.28;;
78893;SDS011;68282;42.698;23.350;2023-05-07T04:33:04;12.70;;;6.68;;
78893;SDS011;68282;42.698;23.350;2023-05-07T04:35:31;11.00;;;6.80;;
78893;SDS011;68282;42.698;23.350;2023-05-07T04:37:57;11.68;;;7.43;;
78893;SDS011;68282;42.698;23.350;2023-05-07T04:40:22;13.63;;;7.95;;
78893;SDS011;68282;42.698;23.350;2023-05-07T04:42:48;11.40;;;7.60;;
78893;SDS011;68282;42.698;23.350;2023-05-07T04:45:13;9.73;;;7.00;;
78893;SDS011;68282;42.698;23.350;2023-05-07T04:47:39;12.40;;;6.90;;
78893;SDS011;68282;42.698;23.350;2023-05-07T04:50:05;11.32;;;8.18;;
78893;SDS011;68282;42.698;23.350;2023-05-07T04:52:31;11.27;;;7.63;;
78893;SDS011;68282;42.698;23.350;2023-05-07T04:54:58;13.50;;;10.02;;
78893;SDS011;68282;42.698;23.350;2023-05-07T04:57:24;14.38;;;8.85;;
78893;SDS011;68282;42.698;23.350;2023-05-07T04:59:49;13.85;;;10.50;;
78893;SDS011;68282;42.698;23.350;2023-05-07T05:02:15;13.98;;;9.23;;
78893;SDS011;68282;42.698;23.350;2023-05-07T05:04:40;13.23;;;10.32;;
78893;SDS011;68282;42.698;23.350;2023-05-07T05:07:06;21.30;;;10.68;;
78893;SDS011;68282;42.698;23.350;2023-05-07T05:09:31;16.08;;;10.38;;
78893;SDS011;68282;42.698;23.350;2023-05-07T05:11:56;13.43;;;9.30;;
78893;SDS011;68282;42.698;23.350;2023-05-07T05:14:22;16.60;;;10.00;;
78893;SDS011;68282;42.698;23.350;2023-05-07T05:16:47;11.30;;;8.75;;
78893;SDS011;68282;42.698;23.350;2023-05-07T05:19:13;13.48;;;8.45;;
78893;SDS011;68282;42.698;23.350;2023-05-07T05:21:38;13.20;;;8.10;;
78893;SDS011;68282;42.698;23.350;2023-05-07T05:24:03;12.65;;;7.93;;
78893;SDS011;68282;42.698;23.350;2023-05-07T05:26:29;15.05;;;8.82;;
78893;SDS011;68282;42.698;23.350;2023-05-07T05:28:54;12.77;;;8.57;;
78893;SDS011;68282;42.698;23.350;2023-05-07T05:31:20;10.90;;;7.80;;
78893;SDS011;68282;42.698;23.350;2023-05-07T05:33:46;9.68;;;7.72;;
78893;SDS011;68282;42.698;23.350;2023-05-07T05:36:11;10.27;;;7.95;;
78893;SDS011;68282;42.698;23.350;2023-05-07T05:38:38;11.93;;;8.45;;
78893;SDS011;68282;42.698;23.350;2023-05-07T05:41:04;12.80;;;8.45;;
78893;SDS011;68282;42.698;23.350;2023-05-07T05:43:29;13.07;;;9.13;;
78893;SDS011;68282;42.698;23.350;2023-05-07T05:45:55;11.32;;;8.75;;
78893;SDS011;68282;42.698;23.350;2023-05-07T05:48:21;14.82;;;9.65;;
78893;SDS011;68282;42.698;23.350;2023-05-07T05:50:47;16.23;;;9.80;;
78893;SDS011;68282;42.698;23.350;2023-05-07T05:53:13;13.73;;;8.93;;
78893;SDS011;68282;42.698;23.350;2023-05-07T05:55:38;12.13;;;9.02;;
78893;SDS011;68282;42.698;23.350;2023-05-07T05:58:04;12.82;;;8.98;;
78893;SDS011;68282;42.698;23.350;2023-05-07T06:00:29;15.27;;;8.80;;
78893;SDS011;68282;42.698;23.350;2023-05-07T06:02:55;11.55;;;9.13;;
78893;SDS011;68282;42.698;23.350;2023-05-07T06:05:20;12.93;;;9.55;;
78893;SDS011;68282;42.698;23.350;2023-05-07T06:07:46;14.07;;;9.23;;
78893;SDS011;68282;42.698;23.350;2023-05-07T06:10:11;14.10;;;9.68;;
78893;SDS011;68282;42.698;23.350;2023-05-07T06:12:37;14.25;;;9.07;;
78893;SDS011;68282;42.698;23.350;2023-05-07T06:15:02;13.57;;;8.93;;
78893;SDS011;68282;42.698;23.350;2023-05-07T06:17:28;14.60;;;9.60;;
78893;SDS011;68282;42.698;23.350;2023-05-07T06:19:53;14.65;;;9.82;;
78893;SDS011;68282;42.698;23.350;2023-05-07T06:22:19;14.63;;;9.38;;
78893;SDS011;68282;42.698;23.350;2023-05-07T06:24:44;12.32;;;8.80;;
78893;SDS011;68282;42.698;23.350;2023-05-07T06:27:10;14.75;;;9.90;;
78893;SDS011;68282;42.698;23.350;2023-05-07T06:29:35;10.88;;;8.73;;
78893;SDS011;68282;42.698;23.350;2023-05-07T06:32:07;10.98;;;8.63;;
78893;SDS011;68282;42.698;23.350;2023-05-07T06:34:37;34.90;;;24.60;;
78893;SDS011;68282;42.698;23.350;2023-05-07T06:37:03;33.90;;;23.77;;
78893;SDS011;68282;42.698;23.350;2023-05-07T06:39:29;27.08;;;21.35;;
78893;SDS011;68282;42.698;23.350;2023-05-07T06:41:55;16.60;;;9.85;;
78893;SDS011;68282;42.698;23.350;2023-05-07T06:44:20;25.42;;;18.38;;
78893;SDS011;68282;42.698;23.350;2023-05-07T06:46:46;70.07;;;47.40;;
78893;SDS011;68282;42.698;23.350;2023-05-07T06:49:14;19.33;;;13.05;;
78893;SDS011;68282;42.698;23.350;2023-05-07T06:51:40;16.13;;;11.02;;
78893;SDS011;68282;42.698;23.350;2023-05-07T06:54:05;18.95;;;9.93;;
78893;SDS011;68282;42.698;23.350;2023-05-07T06:56:31;14.73;;;9.93;;
78893;SDS011;68282;42.698;23.350;2023-05-07T06:58:57;14.93;;;8.93;;
78893;SDS011;68282;42.698;23.350;2023-05-07T07:01:23;12.52;;;9.73;;
78893;SDS011;68282;42.698;23.350;2023-05-07T07:03:48;13.95;;;9.65;;
78893;SDS011;68282;42.698;23.350;2023-05-07T07:06:14;13.82;;;9.90;;
78893;SDS011;68282;42.698;23.350;2023-05-07T07:08:42;14.48;;;10.20;;
78893;SDS011;68282;42.698;23.350;2023-05-07T07:11:08;11.85;;;9.23;;
78893;SDS011;68282;42.698;23.350;2023-05-07T07:13:33;14.93;;;9.70;;
78893;SDS011;68282;42.698;23.350;2023-05-07T07:15:59;10.90;;;9.00;;
78893;SDS011;68282;42.698;23.350;2023-05-07T07:18:25;16.80;;;10.73;;
78893;SDS011;68282;42.698;23.350;2023-05-07T07:20:50;17.08;;;10.50;;
78893;SDS011;68282;42.698;23.350;2023-05-07T07:23:16;16.27;;;9.48;;
78893;SDS011;68282;42.698;23.350;2023-05-07T07:25:41;14.15;;;9.68;;
78893;SDS011;68282;42.698;23.350;2023-05-07T07:28:06;15.57;;;9.95;;
78893;SDS011;68282;42.698;23.350;2023-05-07T07:30:32;15.80;;;10.00;;
78893;SDS011;68282;42.698;23.350;2023-05-07T07:32:57;11.13;;;8.63;;
78893;SDS011;68282;42.698;23.350;2023-05-07T07:35:29;16.85;;;9.18;;
78893;SDS011;68282;42.698;23.350;2023-05-07T07:37:54;13.48;;;9.48;;
78893;SDS011;68282;42.698;23.350;2023-05-07T07:40:20;14.98;;;10.18;;
78893;SDS011;68282;42.698;23.350;2023-05-07T07:42:45;14.52;;;10.02;;
78893;SDS011;68282;42.698;23.350;2023-05-07T07:45:11;14.93;;;9.57;;
78893;SDS011;68282;42.698;23.350;2023-05-07T07:47:37;15.57;;;9.13;;
78893;SDS011;68282;42.698;23.350;2023-05-07T07:50:02;16.95;;;9.50;;
78893;SDS011;68282;42.698;23.350;2023-05-07T07:52:28;15.25;;;8.63;;
78893;SDS011;68282;42.698;23.350;2023-05-07T07:54:53;15.05;;;7.78;;
78893;SDS011;68282;42.698;23.350;2023-05-07T07:57:20;12.20;;;8.13;;
78893;SDS011;68282;42.698;23.350;2023-05-07T07:59:45;10.70;;;8.00;;
78893;SDS011;68282;42.698;23.350;2023-05-07T08:02:11;11.60;;;7.72;;
78893;SDS011;68282;42.698;23.350;2023-05-07T08:04:36;11.85;;;8.23;;
78893;SDS011;68282;42.698;23.350;2023-05-07T08:07:02;10.85;;;7.68;;
78893;SDS011;68282;42.698;23.350;2023-05-07T08:09:28;11.10;;;7.57;;
78893;SDS011;68282;42.698;23.350;2023-05-07T08:11:53;13.45;;;8.13;;
78893;SDS011;68282;42.698;23.350;2023-05-07T08:14:18;14.30;;;8.77;;
78893;SDS011;68282;42.698;23.350;2023-05-07T08:16:44;12.38;;;7.05;;
78893;SDS011;68282;42.698;23.350;2023-05-07T08:19:10;10.13;;;7.88;;
78893;SDS011;68282;42.698;23.350;2023-05-07T08:21:38;15.25;;;8.45;;
78893;SDS011;68282;42.698;23.350;2023-05-07T08:24:04;10.55;;;8.20;;
78893;SDS011;68282;42.698;23.350;2023-05-07T08:26:29;13.63;;;8.45;;
78893;SDS011;68282;42.698;23.350;2023-05-07T08:28:55;11.27;;;8.05;;
78893;SDS011;68282;42.698;23.350;2023-05-07T08:31:20;13.10;;;8.13;;
78893;SDS011;68282;42.698;23.350;2023-05-07T08:33:46;13.95;;;8.52;;
78893;SDS011;68282;42.698;23.350;2023-05-07T08:36:11;12.55;;;8.63;;
78893;SDS011;68282;42.698;23.350;2023-05-07T08:38:36;12.30;;;8.30;;
78893;SDS011;68282;42.698;23.350;2023-05-07T08:41:02;12.05;;;8.40;;
78893;SDS011;68282;42.698;23.350;2023-05-07T08:43:27;11.23;;;8.40;;
78893;SDS011;68282;42.698;23.350;2023-05-07T08:45:53;12.63;;;7.57;;
78893;SDS011;68282;42.698;23.350;2023-05-07T08:48:21;11.18;;;7.43;;
78893;SDS011;68282;42.698;23.350;2023-05-07T08:50:50;9.73;;;7.28;;
78893;SDS011;68282;42.698;23.350;2023-05-07T08:53:16;10.55;;;7.30;;
78893;SDS011;68282;42.698;23.350;2023-05-07T08:55:42;10.73;;;7.30;;
78893;SDS011;68282;42.698;23.350;2023-05-07T08:58:08;6.70;;;5.45;;
78893;SDS011;68282;42.698;23.350;2023-05-07T09:00:33;8.98;;;6.10;;
78893;SDS011;68282;42.698;23.350;2023-05-07T09:03:01;8.55;;;6.28;;
78893;SDS011;68282;42.698;23.350;2023-05-07T09:05:26;8.18;;;5.82;;
78893;SDS011;68282;42.698;23.350;2023-05-07T09:07:52;10.00;;;5.97;;
78893;SDS011;68282;42.698;23.350;2023-05-07T09:10:17;10.50;;;6.10;;
78893;SDS011;68282;42.698;23.350;2023-05-07T09:12:43;8.00;;;5.30;;
78893;SDS011;68282;42.698;23.350;2023-05-07T09:15:08;8.35;;;5.75;;
78893;SDS011;68282;42.698;23.350;2023-05-07T09:17:34;8.10;;;5.70;;
78893;SDS011;68282;42.698;23.350;2023-05-07T09:20:03;8.18;;;5.40;;
78893;SDS011;68282;42.698;23.350;2023-05-07T09:22:33;6.22;;;5.00;;
78893;SDS011;68282;42.698;23.350;2023-05-07T09:24:58;10.18;;;5.65;;
78893;SDS011;68282;42.698;23.350;2023-05-07T09:27:24;7.18;;;5.05;;
78893;SDS011;68282;42.698;23.350;2023-05-07T09:29:50;10.15;;;5.50;;
78893;SDS011;68282;42.698;23.350;2023-05-07T09:32:16;8.98;;;5.30;;
78893;SDS011;68282;42.698;23.350;2023-05-07T09:34:42;7.75;;;5.55;;
78893;SDS011;68282;42.698;23.350;2023-05-07T09:37:07;6.95;;;5.28;;
78893;SDS011;68282;42.698;23.350;2023-05-07T09:39:43;9.25;;;5.28;;
78893;SDS011;68282;42.698;23.350;2023-05-07T09:42:12;8.80;;;5.32;;
78893;SDS011;68282;42.698;23.350;2023-05-07T09:44:39;8.57;;;5.20;;
78893;SDS011;68282;42.698;23.350;2023-05-07T09:47:06;7.03;;;4.60;;
78893;SDS011;68282;42.698;23.350;2023-05-07T09:49:35;10.77;;;5.03;;
78893;SDS011;68282;42.698;23.350;2023-05-07T09:52:02;7.38;;;4.68;;
78893;SDS011;68282;42.698;23.350;2023-05-07T09:54:28;7.75;;;5.05;;
78893;SDS011;68282;42.698;23.350;2023-05-07T09:56:54;6.65;;;4.97;;
78893;SDS011;68282;42.698;23.350;2023-05-07T09:59:20;7.05;;;5.30;;
78893;SDS011;68282;42.698;23.350;2023-05-07T10:01:46;9.18;;;5.00;;
78893;SDS011;68282;42.698;23.350;2023-05-07T10:04:15;5.82;;;4.00;;
78893;SDS011;68282;42.698;23.350;2023-05-07T10:06:41;6.80;;;4.75;;
78893;SDS011;68282;42.698;23.350;2023-05-07T10:09:08;9.25;;;4.97;;
78893;SDS011;68282;42.698;23.350;2023-05-07T10:11:36;6.95;;;4.57;;
78893;SDS011;68282;42.698;23.350;2023-05-07T10:14:02;6.00;;;3.92;;
78893;SDS011;68282;42.698;23.350;2023-05-07T10:16:34;5.95;;;3.80;;
78893;SDS011;68282;42.698;23.350;2023-05-07T10:19:04;5.55;;;4.63;;
78893;SDS011;68282;42.698;23.350;2023-05-07T10:21:31;4.88;;;3.80;;
78893;SDS011;68282;42.698;23.350;2023-05-07T10:24:10;5.55;;;3.92;;
78893;SDS011;68282;42.698;23.350;2023-05-07T10:26:44;6.78;;;4.50;;
78893;SDS011;68282;42.698;23.350;2023-05-07T10:29:33;7.32;;;4.07;;
78893;SDS011;68282;42.698;23.350;2023-05-07T10:35:01;5.80;;;4.20;;
78893;SDS011;68282;42.698;23.350;2023-05-07T10:37:29;6.18;;;4.57;;
78893;SDS011;68282;42.698;23.350;2023-05-07T10:39:55;5.18;;;3.78;;
78893;SDS011;68282;42.698;23.350;2023-05-07T10:42:22;5.40;;;3.83;;
78893;SDS011;68282;42.698;23.350;2023-05-07T10:44:48;4.38;;;3.60;;
78893;SDS011;68282;42.698;23.350;2023-05-07T10:47:14;9.65;;;4.60;;
78893;SDS011;68282;42.698;23.350;2023-05-07T10:52:17;4.88;;;4.10;;
78893;SDS011;68282;42.698;23.350;2023-05-07T10:54:45;5.50;;;3.92;;
78893;SDS011;68282;42.698;23.350;2023-05-07T10:57:32;5.60;;;4.55;;
78893;SDS011;68282;42.698;23.350;2023-05-07T11:00:00;6.80;;;4.10;;
78893;SDS011;68282;42.698;23.350;2023-05-07T11:05:25;4.80;;;3.65;;
78893;SDS011;68282;42.698;23.350;2023-05-07T11:07:54;5.45;;;4.03;;
78893;SDS011;68282;42.698;23.350;2023-05-07T11:10:21;9.85;;;4.20;;
78893;SDS011;68282;42.698;23.350;2023-05-07T11:12:50;7.40;;;4.57;;
78893;SDS011;68282;42.698;23.350;2023-05-07T11:15:33;5.72;;;4.00;;
78893;SDS011;68282;42.698;23.350;2023-05-07T11:18:03;5.38;;;4.25;;
78893;SDS011;68282;42.698;23.350;2023-05-07T11:20:44;5.93;;;4.70;;
78893;SDS011;68282;42.698;23.350;2023-05-07T11:26:14;4.55;;;3.42;;
78893;SDS011;68282;42.698;23.350;2023-05-07T11:28:41;4.60;;;3.53;;
78893;SDS011;68282;42.698;23.350;2023-05-07T11:31:08;4.88;;;3.47;;
78893;SDS011;68282;42.698;23.350;2023-05-07T11:33:34;5.05;;;3.63;;
78893;SDS011;68282;42.698;23.350;2023-05-07T11:36:04;5.32;;;4.05;;
78893;SDS011;68282;42.698;23.350;2023-05-07T11:38:30;4.53;;;3.85;;
78893;SDS011;68282;42.698;23.350;2023-05-07T11:41:00;5.05;;;3.97;;
78893;SDS011;68282;42.698;23.350;2023-05-07T11:43:26;5.10;;;3.10;;
78893;SDS011;68282;42.698;23.350;2023-05-07T11:45:52;4.57;;;3.78;;
78893;SDS011;68282;42.698;23.350;2023-05-07T11:48:17;4.72;;;3.50;;
78893;SDS011;68282;42.698;23.350;2023-05-07T11:55:53;6.03;;;3.78;;
78893;SDS011;68282;42.698;23.350;2023-05-07T11:58:21;4.20;;;3.67;;
78893;SDS011;68282;42.698;23.350;2023-05-07T12:00:48;5.43;;;3.95;;
78893;SDS011;68282;42.698;23.350;2023-05-07T12:03:15;5.03;;;4.00;;
78893;SDS011;68282;42.698;23.350;2023-05-07T12:05:46;5.15;;;3.90;;
78893;SDS011;68282;42.698;23.350;2023-05-07T12:08:15;5.90;;;4.07;;
78893;SDS011;68282;42.698;23.350;2023-05-07T12:10:42;5.72;;;3.70;;
78893;SDS011;68282;42.698;23.350;2023-05-07T12:13:15;6.85;;;3.80;;
78893;SDS011;68282;42.698;23.350;2023-05-07T12:15:44;5.22;;;3.90;;
78893;SDS011;68282;42.698;23.350;2023-05-07T12:18:13;4.10;;;3.40;;
78893;SDS011;68282;42.698;23.350;2023-05-07T12:20:38;5.82;;;4.05;;
78893;SDS011;68282;42.698;23.350;2023-05-07T12:23:07;5.28;;;3.55;;
78893;SDS011;68282;42.698;23.350;2023-05-07T12:25:37;6.90;;;3.17;;
78893;SDS011;68282;42.698;23.350;2023-05-07T12:28:04;3.88;;;3.05;;
78893;SDS011;68282;42.698;23.350;2023-05-07T12:30:32;5.15;;;2.92;;
78893;SDS011;68282;42.698;23.350;2023-05-07T12:33:01;4.78;;;3.40;;
78893;SDS011;68282;42.698;23.350;2023-05-07T12:35:30;3.90;;;2.80;;
78893;SDS011;68282;42.698;23.350;2023-05-07T12:37:58;3.78;;;2.70;;
78893;SDS011;68282;42.698;23.350;2023-05-07T12:40:34;4.55;;;3.22;;
78893;SDS011;68282;42.698;23.350;2023-05-07T12:43:08;4.50;;;2.95;;
78893;SDS011;68282;42.698;23.350;2023-05-07T12:45:41;6.50;;;3.38;;
78893;SDS011;68282;42.698;23.350;2023-05-07T12:48:08;4.78;;;3.38;;
78893;SDS011;68282;42.698;23.350;2023-05-07T12:50:35;3.85;;;3.00;;
78893;SDS011;68282;42.698;23.350;2023-05-07T12:53:00;4.20;;;3.00;;
78893;SDS011;68282;42.698;23.350;2023-05-07T12:55:31;3.35;;;3.00;;
78893;SDS011;68282;42.698;23.350;2023-05-07T12:57:57;3.83;;;2.88;;
78893;SDS011;68282;42.698;23.350;2023-05-07T13:00:33;4.00;;;2.95;;
78893;SDS011;68282;42.698;23.350;2023-05-07T13:02:59;4.38;;;3.15;;
78893;SDS011;68282;42.698;23.350;2023-05-07T13:05:25;4.30;;;2.60;;
78893;SDS011;68282;42.698;23.350;2023-05-07T13:07:54;3.30;;;2.85;;
78893;SDS011;68282;42.698;23.350;2023-05-07T13:10:21;3.47;;;2.55;;
78893;SDS011;68282;42.698;23.350;2023-05-07T13:12:47;5.22;;;3.42;;
78893;SDS011;68282;42.698;23.350;2023-05-07T13:15:15;4.32;;;2.75;;
78893;SDS011;68282;42.698;23.350;2023-05-07T13:17:42;4.10;;;2.95;;
78893;SDS011;68282;42.698;23.350;2023-05-07T13:20:08;4.18;;;2.85;;
78893;SDS011;68282;42.698;23.350;2023-05-07T13:22:34;4.30;;;3.10;;
78893;SDS011;68282;42.698;23.350;2023-05-07T13:25:00;5.63;;;3.08;;
78893;SDS011;68282;42.698;23.350;2023-05-07T13:27:27;3.85;;;2.90;;
78893;SDS011;68282;42.698;23.350;2023-05-07T13:29:52;3.97;;;3.45;;
78893;SDS011;68282;42.698;23.350;2023-05-07T13:32:18;4.78;;;3.78;;
78893;SDS011;68282;42.698;23.350;2023-05-07T13:34:43;7.38;;;3.63;;
78893;SDS011;68282;42.698;23.350;2023-05-07T13:37:09;3.90;;;3.20;;
78893;SDS011;68282;42.698;23.350;2023-05-07T13:39:34;4.00;;;3.13;;
78893;SDS011;68282;42.698;23.350;2023-05-07T13:42:00;5.20;;;3.45;;
78893;SDS011;68282;42.698;23.350;2023-05-07T13:44:25;3.63;;;2.90;;
78893;SDS011;68282;42.698;23.350;2023-05-07T13:46:51;4.88;;;3.55;;
78893;SDS011;68282;42.698;23.350;2023-05-07T13:49:16;6.10;;;3.30;;
78893;SDS011;68282;42.698;23.350;2023-05-07T13:51:42;5.22;;;2.80;;
78893;SDS011;68282;42.698;23.350;2023-05-07T13:54:07;4.05;;;3.15;;
78893;SDS011;68282;42.698;23.350;2023-05-07T13:56:33;3.30;;;2.95;;
78893;SDS011;68282;42.698;23.350;2023-05-07T13:58:59;4.10;;;3.42;;
78893;SDS011;68282;42.698;23.350;2023-05-07T14:01:24;3.38;;;2.60;;
78893;SDS011;68282;42.698;23.350;2023-05-07T14:03:49;4.45;;;3.00;;
78893;SDS011;68282;42.698;23.350;2023-05-07T14:06:15;3.67;;;3.22;;
78893;SDS011;68282;42.698;23.350;2023-05-07T14:08:41;4.18;;;3.13;;
78893;SDS011;68282;42.698;23.350;2023-05-07T14:11:06;5.82;;;2.95;;
78893;SDS011;68282;42.698;23.350;2023-05-07T14:13:32;3.80;;;3.10;;
78893;SDS011;68282;42.698;23.350;2023-05-07T14:15:59;4.32;;;3.03;;
78893;SDS011;68282;42.698;23.350;2023-05-07T14:18:24;4.07;;;3.15;;
78893;SDS011;68282;42.698;23.350;2023-05-07T14:20:50;6.35;;;3.38;;
78893;SDS011;68282;42.698;23.350;2023-05-07T14:23:15;4.47;;;3.20;;
78893;SDS011;68282;42.698;23.350;2023-05-07T14:25:42;4.20;;;3.00;;
78893;SDS011;68282;42.698;23.350;2023-05-07T14:28:08;4.13;;;3.40;;
78893;SDS011;68282;42.698;23.350;2023-05-07T14:30:34;4.85;;;2.83;;
78893;SDS011;68282;42.698;23.350;2023-05-07T14:33:00;5.55;;;3.20;;
78893;SDS011;68282;42.698;23.350;2023-05-07T14:35:25;3.45;;;2.95;;
78893;SDS011;68282;42.698;23.350;2023-05-07T14:37:50;3.92;;;3.47;;
78893;SDS011;68282;42.698;23.350;2023-05-07T14:40:16;5.25;;;3.53;;